createdAt,value
2018-11-23T00:00:12.782Z,41.90
2018-11-23T00:02:43.284Z,38.63
2018-11-23T00:05:11.756Z,45.33
2018-11-23T00:07:44.467Z,40.30
2018-11-23T00:10:14.481Z,40.30
2018-11-23T00:12:43.117Z,41.70
2018-11-23T00:15:13.501Z,36.70
2018-11-23T00:17:42.022Z,38.40
2018-11-23T00:20:13.670Z,43.00
2018-11-23T00:22:42.249Z,45.63
2018-11-23T00:25:12.978Z,42.17
2018-11-23T00:27:42.779Z,44.67
2018-11-23T00:30:14.264Z,41.73
2018-11-23T00:32:42.795Z,38.73
2018-11-23T00:35:13.862Z,42.53
2018-11-23T00:37:42.439Z,39.27
2018-11-23T00:40:13.258Z,39.50
2018-11-23T00:42:42.288Z,42.27
2018-11-23T00:45:12.696Z,37.53
2018-11-23T00:47:42.185Z,46.73
2018-11-23T00:50:12.825Z,43.37
2018-11-23T00:52:42.197Z,39.70
2018-11-23T00:55:12.258Z,45.43
2018-11-23T00:57:40.814Z,43.40
2018-11-23T01:00:19.578Z,43.50
2018-11-23T01:02:48.052Z,41.70
2018-11-23T01:05:17.880Z,42.60
2018-11-23T01:07:46.854Z,43.57
2018-11-23T01:10:17.102Z,39.87
2018-11-23T01:12:46.602Z,43.80
2018-11-23T01:15:15.115Z,40.37
2018-11-23T01:17:43.627Z,39.20
2018-11-23T01:20:15.404Z,42.03
2018-11-23T01:22:44.124Z,42.03
2018-11-23T01:25:13.977Z,44.53
2018-11-23T01:27:43.270Z,40.17
2018-11-23T01:30:16.307Z,42.10
2018-11-23T01:32:44.877Z,49.43
2018-11-23T01:35:13.689Z,44.37
2018-11-23T01:37:43.398Z,43.47
2018-11-23T01:40:14.437Z,40.17
2018-11-23T01:42:43.670Z,41.40
2018-11-23T01:45:12.824Z,44.27
2018-11-23T01:47:41.343Z,40.80
2018-11-23T01:50:13.989Z,43.17
2018-11-23T01:52:42.939Z,38.20
2018-11-23T01:55:12.222Z,44.33
2018-11-23T01:57:41.353Z,40.23
2018-11-23T02:00:13.164Z,45.90
2018-11-23T02:02:41.662Z,43.80
2018-11-23T02:05:10.595Z,43.23
2018-11-23T02:07:39.582Z,41.40
2018-11-23T02:10:10.360Z,39.93
2018-11-23T02:12:38.928Z,41.10
2018-11-23T02:15:12.390Z,47.23
2018-11-23T02:17:40.834Z,45.37
2018-11-23T02:20:10.847Z,42.60
2018-11-23T02:22:39.347Z,43.60
2018-11-23T02:25:07.916Z,43.73
2018-11-23T02:27:36.378Z,41.80
2018-11-23T02:30:07.978Z,41.87
2018-11-23T02:32:36.455Z,38.87
2018-11-23T02:35:05.012Z,50.23
2018-11-23T02:37:33.407Z,47.37
2018-11-23T02:40:01.810Z,39.10
2018-11-23T02:42:30.270Z,40.23
2018-11-23T02:44:59.286Z,42.43
2018-11-23T02:47:27.842Z,40.77
2018-11-23T02:49:56.241Z,48.93
2018-11-23T02:52:24.675Z,46.70
2018-11-23T02:54:53.140Z,42.53
2018-11-23T02:57:21.527Z,41.23
2018-11-23T02:59:50.024Z,39.03
2018-11-23T03:02:18.435Z,45.53
2018-11-23T03:04:46.877Z,39.77
2018-11-23T03:07:15.985Z,41.40
2018-11-23T03:09:44.417Z,36.87
2018-11-23T03:12:12.787Z,38.60
2018-11-23T03:14:41.197Z,39.80
2018-11-23T03:17:09.598Z,41.13
2018-11-23T03:19:38.056Z,41.70
2018-11-23T03:22:06.497Z,47.20
2018-11-23T03:24:34.945Z,38.87
2018-11-23T03:27:03.424Z,40.47
2018-11-23T03:29:31.834Z,34.77
2018-11-23T03:32:00.305Z,38.30
2018-11-23T03:34:29.610Z,38.30
2018-11-23T03:36:58.062Z,40.57
2018-11-23T03:39:26.471Z,39.73
2018-11-23T03:41:55.007Z,42.00
2018-11-23T03:44:23.426Z,38.23
2018-11-23T03:46:52.607Z,45.90
2018-11-23T03:49:21.018Z,46.93
2018-11-23T03:51:49.525Z,49.47
2018-11-23T03:54:18.128Z,40.07
2018-11-23T03:56:46.605Z,43.80
2018-11-23T03:59:15.128Z,40.43
2018-11-23T04:01:44.459Z,42.23
2018-11-23T04:04:12.906Z,40.00
2018-11-23T04:06:41.353Z,36.77
2018-11-23T04:09:10.558Z,34.30
2018-11-23T04:11:38.975Z,35.60
2018-11-23T04:14:07.399Z,40.60
2018-11-23T04:16:36.881Z,35.17
2018-11-23T04:19:05.396Z,32.93
2018-11-23T04:21:33.830Z,45.13
2018-11-23T04:24:02.277Z,41.70
2018-11-23T04:26:30.909Z,38.47
2018-11-23T04:28:59.329Z,41.53
2018-11-23T04:31:27.875Z,43.83
2018-11-23T04:33:56.292Z,41.23
2018-11-23T04:36:24.698Z,33.77
2018-11-23T04:38:53.151Z,39.20
2018-11-23T04:41:21.672Z,37.87
2018-11-23T04:43:50.537Z,41.87
2018-11-23T04:46:18.989Z,43.20
2018-11-23T04:48:47.526Z,45.63
2018-11-23T04:51:15.901Z,40.63
2018-11-23T04:53:44.303Z,40.83
2018-11-23T04:56:12.749Z,39.87
2018-11-23T04:58:41.738Z,38.50
2018-11-23T05:01:10.216Z,38.30
2018-11-23T05:03:38.648Z,39.60
2018-11-23T05:06:07.177Z,46.47
2018-11-23T05:08:35.708Z,43.00
2018-11-23T05:11:04.188Z,42.80
2018-11-23T05:13:32.594Z,43.23
2018-11-23T05:16:01.147Z,45.53
2018-11-23T05:18:29.580Z,43.57
2018-11-23T05:20:58.468Z,42.00
2018-11-23T05:23:26.949Z,59.23
2018-11-23T05:25:55.393Z,47.07
2018-11-23T05:28:23.920Z,47.70
2018-11-23T05:30:52.348Z,56.17
2018-11-23T05:33:20.745Z,50.80
2018-11-23T05:35:49.156Z,55.30
2018-11-23T05:38:17.546Z,48.93
2018-11-23T05:40:45.970Z,49.87
2018-11-23T05:43:14.356Z,44.23
2018-11-23T05:45:42.826Z,54.43
2018-11-23T05:48:11.300Z,46.07
2018-11-23T05:50:39.801Z,50.80
2018-11-23T05:53:08.215Z,47.13
2018-11-23T05:55:36.665Z,48.83
2018-11-23T05:58:05.137Z,58.10
2018-11-23T06:00:34.040Z,49.60
2018-11-23T06:03:02.725Z,50.03
2018-11-23T06:05:31.216Z,48.43
2018-11-23T06:07:59.699Z,54.60
2018-11-23T06:10:28.110Z,51.07
2018-11-23T06:12:56.517Z,54.67
2018-11-23T06:15:25.565Z,50.50
2018-11-23T06:17:54.015Z,50.10
2018-11-23T06:20:24.728Z,51.70
2018-11-23T06:22:53.778Z,55.20
2018-11-23T06:25:25.004Z,56.93
2018-11-23T06:27:53.855Z,53.00
2018-11-23T06:30:22.318Z,52.93
2018-11-23T06:33:01.819Z,53.50
2018-11-23T06:35:30.434Z,48.50
2018-11-23T06:37:58.853Z,51.67
2018-11-23T06:40:27.324Z,59.03
2018-11-23T06:42:55.741Z,48.60
2018-11-23T06:45:24.560Z,54.40
2018-11-23T06:47:54.134Z,55.17
2018-11-23T06:50:22.656Z,50.03
2018-11-23T06:52:51.248Z,50.83
2018-11-23T06:55:19.934Z,51.10
2018-11-23T06:57:48.429Z,53.43
2018-11-23T07:00:18.136Z,53.33
2018-11-23T07:02:46.811Z,52.97
2018-11-23T07:05:15.615Z,55.30
2018-11-23T07:07:44.446Z,54.97
2018-11-23T07:10:13.165Z,50.73
2018-11-23T07:12:45.118Z,52.63
2018-11-23T07:15:13.718Z,52.60
2018-11-23T07:17:42.709Z,61.53
2018-11-23T07:20:13.463Z,50.80
2018-11-23T07:22:42.476Z,56.17
2018-11-23T07:25:12.193Z,61.87
2018-11-23T07:27:41.199Z,61.87
2018-11-23T07:30:14.187Z,49.77
2018-11-23T07:32:42.743Z,57.23
2018-11-23T07:35:11.751Z,61.07
2018-11-23T07:37:41.381Z,54.93
2018-11-23T07:40:26.966Z,54.77
2018-11-23T07:42:56.081Z,55.70
2018-11-23T07:45:26.157Z,74.53
2018-11-23T07:47:54.639Z,83.60
2018-11-23T07:50:23.206Z,81.60
2018-11-23T07:52:51.637Z,71.83
2018-11-23T07:55:20.945Z,53.70
2018-11-23T07:57:51.197Z,51.03
2018-11-23T08:00:21.089Z,45.57
2018-11-23T08:02:49.766Z,68.83
2018-11-23T08:05:19.038Z,59.03
2018-11-23T08:07:49.190Z,56.60
2018-11-23T08:10:16.805Z,151.47
2018-11-23T08:12:49.544Z,124.87
2018-11-23T08:15:23.230Z,83.57
2018-11-23T08:17:51.759Z,69.00
2018-11-23T08:20:21.558Z,57.63
2018-11-23T08:22:50.081Z,53.37
2018-11-23T08:25:19.971Z,59.40
2018-11-23T08:27:49.436Z,45.60
2018-11-23T08:30:22.724Z,54.60
2018-11-23T08:32:51.201Z,58.37
2018-11-23T08:35:20.907Z,62.53
2018-11-23T08:37:49.378Z,65.70
2018-11-23T08:40:21.118Z,66.93
2018-11-23T08:42:50.619Z,62.57
2018-11-23T08:45:21.156Z,72.93
2018-11-23T08:47:49.637Z,62.40
2018-11-23T08:50:23.653Z,68.77
2018-11-23T08:52:52.218Z,70.63
2018-11-23T08:55:21.142Z,69.03
2018-11-23T08:57:49.699Z,54.50
2018-11-23T09:00:26.727Z,55.37
2018-11-23T09:03:00.737Z,53.93
2018-11-23T09:05:29.177Z,55.50
2018-11-23T09:07:58.223Z,54.23
2018-11-23T09:10:28.377Z,59.90
2018-11-23T09:12:58.554Z,62.63
2018-11-23T09:15:27.091Z,53.47
2018-11-23T09:17:55.597Z,53.27
2018-11-23T09:20:24.147Z,49.20
2018-11-23T09:22:53.292Z,50.60
2018-11-23T09:25:23.115Z,52.07
2018-11-23T09:27:52.014Z,53.27
2018-11-23T09:30:23.750Z,49.97
2018-11-23T09:32:54.791Z,57.50
2018-11-23T09:35:24.142Z,48.93
2018-11-23T09:37:52.785Z,48.30
2018-11-23T09:40:23.805Z,51.47
2018-11-23T09:42:52.901Z,53.40
2018-11-23T09:45:27.825Z,49.00
2018-11-23T09:47:57.769Z,51.13
2018-11-23T09:50:26.908Z,47.10
2018-11-23T09:52:56.424Z,46.63
2018-11-23T09:55:25.505Z,44.13
2018-11-23T09:57:54.125Z,49.87
2018-11-23T10:00:24.747Z,48.60
2018-11-23T10:02:54.447Z,49.10
2018-11-23T10:05:23.698Z,43.43
2018-11-23T10:07:53.922Z,49.27
2018-11-23T10:10:23.066Z,51.57
2018-11-23T10:12:51.555Z,52.20
2018-11-23T10:15:20.646Z,47.37
2018-11-23T10:17:49.231Z,45.20
2018-11-23T10:20:19.480Z,51.90
2018-11-23T10:22:48.338Z,47.10
2018-11-23T10:25:19.488Z,43.80
2018-11-23T10:27:48.357Z,53.50
2018-11-23T10:30:21.595Z,50.43
2018-11-23T10:32:51.386Z,45.00
2018-11-23T10:35:19.860Z,41.77
2018-11-23T10:37:49.980Z,45.97
2018-11-23T10:40:19.918Z,43.23
2018-11-23T10:42:49.898Z,46.13
2018-11-23T10:45:20.584Z,48.97
2018-11-23T10:47:49.818Z,60.33
2018-11-23T10:50:20.514Z,44.30
2018-11-23T10:52:49.070Z,44.03
2018-11-23T10:55:21.078Z,42.53
2018-11-23T10:57:49.693Z,41.30
2018-11-23T11:00:23.981Z,45.83
2018-11-23T11:02:59.425Z,42.00
2018-11-23T11:05:41.918Z,54.27
2018-11-23T11:08:10.579Z,44.90
2018-11-23T11:10:39.062Z,40.80
2018-11-23T11:13:07.729Z,37.37
2018-11-23T11:15:37.236Z,37.60
2018-11-23T11:18:06.678Z,39.90
2018-11-23T11:20:35.167Z,37.67
2018-11-23T11:23:03.662Z,40.67
2018-11-23T11:25:32.094Z,36.63
2018-11-23T11:28:00.614Z,35.90
2018-11-23T11:30:29.067Z,39.63
2018-11-23T11:32:57.583Z,39.67
2018-11-23T11:35:26.033Z,38.37
2018-11-23T11:37:54.532Z,38.87
2018-11-23T11:40:22.961Z,37.73
2018-11-23T11:42:51.583Z,34.47
2018-11-23T11:45:20.112Z,32.90
2018-11-23T11:47:49.045Z,33.80
2018-11-23T11:50:17.680Z,36.10
2018-11-23T11:52:47.585Z,35.43
2018-11-23T11:55:17.363Z,71.63
2018-11-23T11:57:46.441Z,63.53
2018-11-23T12:00:23.525Z,47.10
2018-11-23T12:02:53.034Z,38.17
2018-11-23T12:05:21.496Z,37.73
2018-11-23T12:07:50.006Z,33.83
2018-11-23T12:10:22.029Z,31.03
2018-11-23T12:12:50.523Z,35.00
2018-11-23T12:15:19.871Z,38.47
2018-11-23T12:17:48.369Z,32.03
2018-11-23T12:20:23.289Z,29.67
2018-11-23T12:22:52.055Z,28.30
2018-11-23T12:25:21.036Z,34.67
2018-11-23T12:27:49.602Z,34.43
2018-11-23T12:30:19.374Z,35.37
2018-11-23T12:32:49.061Z,34.23
2018-11-23T12:35:18.675Z,30.23
2018-11-23T12:37:47.187Z,34.30
2018-11-23T12:40:16.977Z,28.70
2018-11-23T12:42:46.014Z,32.47
2018-11-23T12:45:16.398Z,28.57
2018-11-23T12:47:44.850Z,31.03
2018-11-23T12:50:15.326Z,31.53
2018-11-23T12:52:43.833Z,34.40
2018-11-23T12:55:13.343Z,30.83
2018-11-23T12:57:42.825Z,31.73
2018-11-23T13:00:20.050Z,29.63
2018-11-23T13:02:50.231Z,25.50
2018-11-23T13:05:19.229Z,28.47
2018-11-23T13:07:47.699Z,26.63
2018-11-23T13:10:16.249Z,27.70
2018-11-23T13:12:50.681Z,28.97
2018-11-23T13:15:14.119Z,25.47
2018-11-23T13:17:43.657Z,24.93
2018-11-23T13:20:13.627Z,29.37
2018-11-23T13:22:42.281Z,22.53
2018-11-23T13:25:12.735Z,21.83
2018-11-23T13:27:41.654Z,23.30
2018-11-23T13:30:13.764Z,21.53
2018-11-23T13:32:42.890Z,24.93
2018-11-23T13:35:13.009Z,22.10
2018-11-23T13:37:42.124Z,23.70
2018-11-23T13:40:13.267Z,25.60
2018-11-23T13:42:41.896Z,25.70
2018-11-23T13:45:12.460Z,21.53
2018-11-23T13:47:41.143Z,24.50
2018-11-23T13:50:11.986Z,19.90
2018-11-23T13:52:41.659Z,24.60
2018-11-23T13:55:10.201Z,22.87
2018-11-23T13:57:38.699Z,22.60
2018-11-23T14:00:13.737Z,23.63
2018-11-23T14:02:42.223Z,25.93
2018-11-23T14:05:12.838Z,26.43
2018-11-23T14:07:41.811Z,24.57
2018-11-23T14:10:12.633Z,21.47
2018-11-23T14:12:41.417Z,27.90
2018-11-23T14:15:13.405Z,20.90
2018-11-23T14:17:42.682Z,22.63
2018-11-23T14:20:12.596Z,22.83
2018-11-23T14:22:41.176Z,25.03
2018-11-23T14:25:11.930Z,23.50
2018-11-23T14:27:41.197Z,20.87
2018-11-23T14:30:12.689Z,22.67
2018-11-23T14:32:41.355Z,21.20
2018-11-23T14:35:12.075Z,23.40
2018-11-23T14:37:41.916Z,26.53
2018-11-23T14:40:11.598Z,24.87
2018-11-23T14:42:41.321Z,23.27
2018-11-23T14:45:13.462Z,24.03
2018-11-23T14:47:42.274Z,25.60
2018-11-23T14:50:14.589Z,23.33
2018-11-23T14:52:44.211Z,21.97
2018-11-23T14:55:12.829Z,21.93
2018-11-23T14:57:42.654Z,20.90
2018-11-23T15:00:21.903Z,22.93
2018-11-23T15:02:51.683Z,18.13
2018-11-23T15:05:20.367Z,22.30
2018-11-23T15:07:48.896Z,23.70
2018-11-23T15:10:18.775Z,22.37
2018-11-23T15:12:48.613Z,27.30
2018-11-23T15:15:18.524Z,22.13
2018-11-23T15:17:48.034Z,21.40
2018-11-23T15:20:19.564Z,22.93
2018-11-23T15:22:50.366Z,22.90
2018-11-23T15:25:18.884Z,19.30
2018-11-23T15:27:48.329Z,20.57
2018-11-23T15:30:19.486Z,24.80
2018-11-23T15:32:48.108Z,23.33
2018-11-23T15:35:16.975Z,20.60
2018-11-23T15:37:45.521Z,20.20
2018-11-23T15:40:19.452Z,20.63
2018-11-23T15:42:48.691Z,20.17
2018-11-23T15:45:19.761Z,18.17
2018-11-23T15:47:48.290Z,19.37
2018-11-23T15:50:20.030Z,22.10
2018-11-23T15:52:48.702Z,21.10
2018-11-23T15:55:19.803Z,23.03
2018-11-23T15:57:49.273Z,20.27
2018-11-23T16:00:21.495Z,16.90
2018-11-23T16:02:50.434Z,17.10
2018-11-23T16:05:18.995Z,18.43
2018-11-23T16:07:47.874Z,20.93
2018-11-23T16:10:23.683Z,20.03
2018-11-23T16:12:53.452Z,20.97
2018-11-23T16:15:22.631Z,17.13
2018-11-23T16:17:51.650Z,18.23
2018-11-23T16:20:22.036Z,18.07
2018-11-23T16:22:52.918Z,15.40
2018-11-23T16:25:21.398Z,17.10
2018-11-23T16:27:51.562Z,19.90
2018-11-23T16:30:22.967Z,15.93
2018-11-23T16:32:52.455Z,16.80
2018-11-23T16:35:25.146Z,16.17
2018-11-23T16:37:54.648Z,31.20
2018-11-23T16:40:28.454Z,19.97
2018-11-23T16:42:57.630Z,20.73
2018-11-23T16:45:29.904Z,19.80
2018-11-23T16:47:59.401Z,20.23
2018-11-23T16:50:28.309Z,20.00
2018-11-23T16:52:57.206Z,18.73
2018-11-23T16:55:25.874Z,21.00
2018-11-23T16:57:55.994Z,20.73
2018-11-23T17:00:29.085Z,16.37
2018-11-23T17:02:58.919Z,18.40
2018-11-23T17:05:28.994Z,20.63
2018-11-23T17:07:57.429Z,19.10
2018-11-23T17:10:26.576Z,21.47
2018-11-23T17:12:55.046Z,16.80
2018-11-23T17:15:25.001Z,18.27
2018-11-23T17:17:53.552Z,18.63
2018-11-23T17:20:24.188Z,16.83
2018-11-23T17:22:53.811Z,23.87
2018-11-23T17:25:23.244Z,18.17
2018-11-23T17:27:53.249Z,17.30
2018-11-23T17:30:23.772Z,24.03
2018-11-23T17:32:52.264Z,17.53
2018-11-23T17:35:21.024Z,19.73
2018-11-23T17:37:49.596Z,26.00
2018-11-23T17:40:19.495Z,20.73
2018-11-23T17:42:48.008Z,21.60
2018-11-23T17:45:18.221Z,23.10
2018-11-23T17:47:46.758Z,19.40
2018-11-23T17:50:18.957Z,18.70
2018-11-23T17:52:47.969Z,20.80
2018-11-23T17:55:16.445Z,16.23
2018-11-23T17:57:45.637Z,18.07
2018-11-23T18:00:22.984Z,17.43
2018-11-23T18:02:52.327Z,17.63
2018-11-23T18:05:21.817Z,19.27
2018-11-23T18:07:50.549Z,18.03
2018-11-23T18:10:21.254Z,16.17
2018-11-23T18:12:50.175Z,16.80
2018-11-23T18:15:21.133Z,27.33
2018-11-23T18:17:50.420Z,19.20
2018-11-23T18:20:20.040Z,15.87
2018-11-23T18:22:49.360Z,19.00
2018-11-23T18:25:20.425Z,20.47
2018-11-23T18:27:49.340Z,17.70
2018-11-23T18:30:17.834Z,18.23
2018-11-23T18:32:46.236Z,19.00
2018-11-23T18:35:15.245Z,22.00
2018-11-23T18:37:43.720Z,18.30
2018-11-23T18:40:13.619Z,20.50
2018-11-23T18:42:42.689Z,21.40
2018-11-23T18:45:12.864Z,18.33
2018-11-23T18:47:42.759Z,24.30
2018-11-23T18:50:15.482Z,19.80
2018-11-23T18:52:44.080Z,19.53
2018-11-23T18:55:18.131Z,19.73
2018-11-23T18:57:43.117Z,15.37
2018-11-23T19:00:16.346Z,19.93
2018-11-23T19:02:46.775Z,19.10
2018-11-23T19:05:20.616Z,21.10
2018-11-23T19:07:49.144Z,20.40
2018-11-23T19:10:17.686Z,23.47
2018-11-23T19:12:46.144Z,18.57
2018-11-23T19:15:17.534Z,23.37
2018-11-23T19:17:45.315Z,22.13
2018-11-23T19:20:17.738Z,21.10
2018-11-23T19:22:47.401Z,23.03
2018-11-23T19:25:16.055Z,19.80
2018-11-23T19:27:45.733Z,20.03
2018-11-23T19:30:15.623Z,25.30
2018-11-23T19:32:44.189Z,22.60
2018-11-23T19:35:12.741Z,19.83
2018-11-23T19:37:41.306Z,23.90
2018-11-23T19:40:12.574Z,25.77
2018-11-23T19:42:41.060Z,26.17
2018-11-23T19:45:11.158Z,26.57
2018-11-23T19:47:39.646Z,26.90
2018-11-23T19:50:11.654Z,42.20
2018-11-23T19:52:40.319Z,76.03
2018-11-23T19:55:09.385Z,119.40
2018-11-23T19:57:37.867Z,94.10
2018-11-23T20:00:17.713Z,67.37
2018-11-23T20:02:46.613Z,52.60
2018-11-23T20:05:15.111Z,43.30
2018-11-23T20:07:43.753Z,37.47
2018-11-23T20:10:13.923Z,42.40
2018-11-23T20:12:42.506Z,35.40
2018-11-23T20:15:13.675Z,22.70
2018-11-23T20:17:42.175Z,26.53
2018-11-23T20:20:12.761Z,21.97
2018-11-23T20:22:41.215Z,27.20
2018-11-23T20:25:12.223Z,17.00
2018-11-23T20:27:41.290Z,20.27
2018-11-23T20:30:12.958Z,19.10
2018-11-23T20:32:41.499Z,19.10
2018-11-23T20:35:13.393Z,47.10
2018-11-23T20:37:42.429Z,24.30
2018-11-23T20:40:18.072Z,25.07
2018-11-23T20:42:47.127Z,25.33
2018-11-23T20:45:15.678Z,21.20
2018-11-23T20:47:45.092Z,21.67
2018-11-23T20:50:14.875Z,24.40
2018-11-23T20:52:43.425Z,28.77
2018-11-23T20:55:16.004Z,26.70
2018-11-23T20:57:44.482Z,27.67
2018-11-23T21:00:14.992Z,25.13
2018-11-23T21:02:43.744Z,23.13
2018-11-23T21:05:13.330Z,24.47
2018-11-23T21:07:41.884Z,19.27
2018-11-23T21:10:20.120Z,23.00
2018-11-23T21:12:42.114Z,20.77
2018-11-23T21:15:23.727Z,19.70
2018-11-23T21:17:53.325Z,20.70
2018-11-23T21:20:21.804Z,21.13
2018-11-23T21:22:50.245Z,21.77
2018-11-23T21:25:18.793Z,19.20
2018-11-23T21:27:47.268Z,21.97
2018-11-23T21:30:18.810Z,18.53
2018-11-23T21:32:47.330Z,21.40
2018-11-23T21:35:15.849Z,26.43
2018-11-23T21:37:44.342Z,33.13
2018-11-23T21:40:13.961Z,36.37
2018-11-23T21:42:42.417Z,48.97
2018-11-23T21:45:15.916Z,34.63
2018-11-23T21:47:44.417Z,40.47
2018-11-23T21:50:15.035Z,42.30
2018-11-23T21:52:43.526Z,45.90
2018-11-23T21:55:20.499Z,40.50
2018-11-23T21:57:49.041Z,40.00
2018-11-23T22:00:17.533Z,36.90
2018-11-23T22:02:46.046Z,29.90
2018-11-23T22:05:14.568Z,30.63
2018-11-23T22:07:43.064Z,25.40
2018-11-23T22:10:15.335Z,24.43
2018-11-23T22:12:44.250Z,28.53
2018-11-23T22:15:16.221Z,32.13
2018-11-23T22:17:45.376Z,31.60
2018-11-23T22:20:15.116Z,22.10
2018-11-23T22:22:43.603Z,23.40
2018-11-23T22:25:13.447Z,22.20
2018-11-23T22:27:42.059Z,26.30
2018-11-23T22:30:13.840Z,23.60
2018-11-23T22:32:42.356Z,27.83
2018-11-23T22:35:11.910Z,26.90
2018-11-23T22:37:40.395Z,21.07
2018-11-23T22:40:11.335Z,19.87
2018-11-23T22:42:40.048Z,25.80
2018-11-23T22:45:10.056Z,21.63
2018-11-23T22:47:38.965Z,20.67
2018-11-23T22:50:09.732Z,23.13
2018-11-23T22:52:39.176Z,25.47
2018-11-23T22:55:09.501Z,24.40
2018-11-23T22:57:38.092Z,27.40
2018-11-23T23:00:10.650Z,24.50
2018-11-23T23:02:39.189Z,20.67
2018-11-23T23:05:08.046Z,21.20
2018-11-23T23:07:37.450Z,22.80
2018-11-23T23:10:06.479Z,25.63
2018-11-23T23:12:35.145Z,23.53
2018-11-23T23:15:04.206Z,27.70
2018-11-23T23:17:32.625Z,22.60
2018-11-23T23:20:01.126Z,18.63
2018-11-23T23:22:29.570Z,22.27
2018-11-23T23:24:58.818Z,22.20
2018-11-23T23:27:27.272Z,29.73
2018-11-23T23:29:55.728Z,25.73
2018-11-23T23:32:24.186Z,26.47
2018-11-23T23:34:52.610Z,27.13
2018-11-23T23:37:21.084Z,24.70
2018-11-23T23:39:49.508Z,28.80
2018-11-23T23:42:17.917Z,25.77
2018-11-23T23:44:46.347Z,26.30
2018-11-23T23:47:15.049Z,25.53
2018-11-23T23:49:43.684Z,21.40
2018-11-23T23:52:19.450Z,22.20
2018-11-23T23:54:47.871Z,25.70
2018-11-23T23:57:16.332Z,23.50
2018-11-23T23:59:44.788Z,26.87
